Погода Мисан Велана 2 недели

Сеара, Бразилия

23 июля-05 августа
  • 23июля
    Сегодня
    +20°
    +32°
    Ясно и безоблачно
    ВремяПогодаТемператураВлажностьДавлениеВетер, м/сВероятность осадков
    00:00Ясно и безоблачно+23°C72 %732 мм3.0 м/с5 %
    03:00Ясно и безоблачно+22°C77 %732 мм1.8 м/с2 %
    06:00Ясно и безоблачно+21°C80 %732 мм1.3 м/с4 %
    09:00Ясно и безоблачно+25°C58 %733 мм4.0 м/с3 %
    12:00Ясно и безоблачно+30°C38 %732 мм4.6 м/с5 %
    15:00Ясно и безоблачно+32°C35 %730 мм5.0 м/с5 %
    18:00Ясно и безоблачно+29°C41 %731 мм2.8 м/с5 %
    21:00Ясно и безоблачно+26°C54 %732 мм3.5 м/с5 %
  • 24июля
    Среда
    +20°
    +32°
    Практически безоблачно
    ВремяПогодаТемператураВлажностьДавлениеВетер, м/сВероятность осадков
    00:00Ясно и безоблачно+23°C74 %732 мм2.2 м/с5 %
    03:00Практически безоблачно+21°C79 %731 мм2.0 м/с6 %
    06:00Пасмурно, сплошная облачность+21°C82 %732 мм1.8 м/с12 %
    09:00Небольшая облачность+25°C58 %734 мм5.0 м/с26 %
    12:00Облачно с прояснениями+29°C40 %732 мм5.1 м/с12 %
    15:00Практически безоблачно+31°C35 %731 мм5.4 м/с5 %
    18:00Практически безоблачно+28°C43 %731 мм2.6 м/с5 %
    21:00Ясно и безоблачно+25°C52 %733 мм3.7 м/с5 %
  • 25июля
    Четверг
    +20°
    +32°
    Ясно и безоблачно
    ВремяПогодаТемператураВлажностьДавлениеВетер, м/сВероятность осадков
    00:00Ясно и безоблачно+23°C57 %733 мм2.1 м/с5 %
    03:00Ясно и безоблачно+21°C68 %732 мм1.4 м/с5 %
    06:00Ясно и безоблачно+20°C82 %732 мм1.1 м/с5 %
    09:00Облачно с прояснениями+25°C55 %733 мм5.0 м/с8 %
    12:00Практически безоблачно+30°C35 %732 мм5.2 м/с5 %
    15:00Ясно и безоблачно+32°C30 %730 мм5.1 м/с5 %
    18:00Ясно и безоблачно+29°C40 %730 мм2.7 м/с5 %
    21:00Ясно и безоблачно+26°C57 %731 мм3.6 м/с5 %
  • 26июля
    Пятница
    +21°
    +33°
    Небольшая облачность
    ВремяПогодаТемператураВлажностьДавлениеВетер, м/сВероятность осадков
    00:00Ясно и безоблачно+24°C73 %731 мм2.3 м/с5 %
    03:00Практически безоблачно+22°C80 %730 мм1.0 м/с3 %
    06:00Небольшая облачность+20°C86 %731 мм1.0 м/с5 %
    09:00Небольшая облачность+25°C58 %732 мм3.9 м/с3 %
    12:00Пасмурно, сплошная облачность+30°C39 %731 мм4.7 м/с5 %
    15:00Небольшая облачность+32°C32 %729 мм4.7 м/с5 %
    18:00Ясно и безоблачно+29°C36 %729 мм1.9 м/с5 %
    21:00Небольшая облачность+26°C54 %731 мм3.3 м/с6 %
  • 27июля
    Суббота
    +21°
    +33°
    Облачно с прояснениями
    ВремяПогодаТемператураВлажностьДавлениеВетер, м/сВероятность осадков
    00:00Практически безоблачно+24°C69 %731 мм1.8 м/с12 %
    03:00Небольшая облачность+22°C65 %730 мм1.3 м/с6 %
    06:00Ясно и безоблачно+22°C71 %731 мм1.6 м/с5 %
    09:00Практически безоблачно+26°C47 %733 мм3.7 м/с5 %
    12:00Небольшая облачность+30°C27 %731 мм3.9 м/с4 %
    15:00Облачно с прояснениями+32°C26 %729 мм3.9 м/с5 %
    18:00Практически безоблачно+30°C30 %730 мм1.6 м/с7 %
    21:00Практически безоблачно+27°C40 %732 мм3.6 м/с26 %
Мы используем cookies
Соглашаюсь